createdAt,value
2022-10-08T00:01:24.154Z,23.73
2022-10-08T00:03:53.575Z,13.68
2022-10-08T00:06:22.155Z,14.05
2022-10-08T00:08:55.370Z,14.32
2022-10-08T00:11:25.704Z,14.57
2022-10-08T00:13:54.747Z,16.40
2022-10-08T00:16:28.421Z,15.30
2022-10-08T00:18:59.659Z,16.55
2022-10-08T00:21:32.766Z,17.05
2022-10-08T00:24:01.589Z,18.45
2022-10-08T00:26:32.006Z,13.02
2022-10-08T00:29:02.188Z,16.75
2022-10-08T00:31:32.336Z,14.73
2022-10-08T00:34:02.869Z,14.70
2022-10-08T00:36:32.504Z,23.00
2022-10-08T00:39:08.924Z,15.45
2022-10-08T00:41:38.602Z,14.70
2022-10-08T00:44:43.206Z,15.95
2022-10-08T00:47:33.482Z,17.23
2022-10-08T00:50:17.364Z,14.35
2022-10-08T00:52:48.711Z,20.58
2022-10-08T00:55:20.559Z,15.90
2022-10-08T00:57:48.783Z,14.18
2022-10-08T01:00:25.397Z,17.63
2022-10-08T01:02:54.310Z,15.27
2022-10-08T01:05:48.913Z,14.52
2022-10-08T01:08:24.594Z,16.10
2022-10-08T01:11:19.559Z,15.55
2022-10-08T01:14:25.897Z,13.05
2022-10-08T01:16:56.236Z,12.20
2022-10-08T01:19:41.819Z,20.60
2022-10-08T01:22:30.642Z,14.07
2022-10-08T01:25:29.553Z,17.95
2022-10-08T01:28:00.972Z,12.35
2022-10-08T01:30:33.752Z,13.82
2022-10-08T01:33:12.360Z,12.00
2022-10-08T01:35:46.996Z,16.42
2022-10-08T01:38:17.918Z,19.05
2022-10-08T01:40:48.509Z,18.42
2022-10-08T01:43:20.894Z,12.63
2022-10-08T01:45:53.630Z,15.63
2022-10-08T01:48:25.757Z,13.77
2022-10-08T01:50:58.822Z,13.85
2022-10-08T01:53:28.946Z,14.20
2022-10-08T01:55:57.753Z,13.73
2022-10-08T01:58:34.562Z,17.42
2022-10-08T02:01:10.784Z,13.05
2022-10-08T02:03:38.099Z,14.32
2022-10-08T02:06:07.050Z,16.02
2022-10-08T02:08:34.372Z,14.07
2022-10-08T02:11:01.754Z,13.32
2022-10-08T02:13:30.462Z,13.20
2022-10-08T02:16:07.094Z,14.32
2022-10-08T02:18:58.405Z,13.55
2022-10-08T02:21:28.510Z,13.27
2022-10-08T02:23:55.696Z,11.95
2022-10-08T02:26:31.603Z,14.40
2022-10-08T02:29:13.580Z,11.38
2022-10-08T02:31:52.588Z,12.88
2022-10-08T02:34:41.560Z,13.20
2022-10-08T02:37:21.724Z,15.50
2022-10-08T02:40:10.096Z,14.20
2022-10-08T02:42:42.635Z,16.55
2022-10-08T02:45:20.442Z,21.88
2022-10-08T02:47:53.894Z,14.00
2022-10-08T02:50:25.649Z,13.85
2022-10-08T02:55:41.970Z,16.90
2022-10-08T02:58:11.543Z,13.93
2022-10-08T03:01:21.229Z,16.42
2022-10-08T03:03:57.179Z,13.80
2022-10-08T03:06:28.106Z,18.55
2022-10-08T03:08:59.725Z,16.43
2022-10-08T03:11:29.888Z,18.55
2022-10-08T03:14:02.013Z,13.00
2022-10-08T03:16:38.222Z,16.17
2022-10-08T03:19:09.155Z,12.20
2022-10-08T03:21:39.581Z,12.80
2022-10-08T03:24:08.164Z,15.75
2022-10-08T03:26:36.098Z,14.63
2022-10-08T03:29:04.684Z,11.82
2022-10-08T03:31:32.890Z,12.88
2022-10-08T03:34:00.940Z,16.55
2022-10-08T03:36:29.735Z,13.13
2022-10-08T03:38:58.216Z,16.80
2022-10-08T03:41:26.194Z,11.27
2022-10-08T03:43:54.060Z,13.45
2022-10-08T03:46:22.047Z,14.38
2022-10-08T03:48:50.448Z,14.05
2022-10-08T03:51:19.922Z,20.30
2022-10-08T03:53:47.952Z,14.98
2022-10-08T03:56:20.870Z,11.90
2022-10-08T03:58:53.723Z,15.55
2022-10-08T04:01:24.054Z,20.23
2022-10-08T04:03:51.984Z,16.23
2022-10-08T04:06:19.814Z,14.63
2022-10-08T04:08:47.374Z,15.38
2022-10-08T04:11:19.953Z,19.00
2022-10-08T04:13:47.888Z,15.23
2022-10-08T04:16:18.276Z,14.35
2022-10-08T04:18:47.238Z,14.00
2022-10-08T04:21:16.846Z,13.40
2022-10-08T04:23:45.165Z,15.75
2022-10-08T04:26:14.934Z,14.98
2022-10-08T04:28:48.373Z,11.32
2022-10-08T04:31:23.563Z,12.77
2022-10-08T04:33:52.662Z,17.13
2022-10-08T04:36:25.449Z,13.43
2022-10-08T04:38:53.112Z,18.30
2022-10-08T04:41:23.429Z,12.57
2022-10-08T04:43:52.349Z,24.05
2022-10-08T04:46:21.906Z,14.45
2022-10-08T04:48:54.767Z,18.63
2022-10-08T04:51:24.497Z,14.68
2022-10-08T04:53:53.092Z,16.88
2022-10-08T04:56:24.626Z,19.77
2022-10-08T04:58:55.161Z,19.80
2022-10-08T05:01:23.938Z,22.42
2022-10-08T05:03:54.199Z,16.02
2022-10-08T05:06:28.265Z,32.45
2022-10-08T05:08:56.868Z,25.52
2022-10-08T05:11:26.707Z,21.98
2022-10-08T05:13:55.937Z,20.92
2022-10-08T05:16:24.800Z,36.58
2022-10-08T05:18:53.252Z,30.95
2022-10-08T05:21:26.864Z,24.17
2022-10-08T05:24:02.596Z,18.48
2022-10-08T05:29:20.044Z,21.15
2022-10-08T05:31:47.340Z,18.05
2022-10-08T05:34:15.966Z,24.95
2022-10-08T05:36:43.478Z,16.67
2022-10-08T05:39:11.118Z,14.43
2022-10-08T05:41:38.537Z,19.17
2022-10-08T05:44:06.955Z,14.05
2022-10-08T05:46:36.246Z,13.07
2022-10-08T05:49:06.201Z,19.33
2022-10-08T05:51:34.224Z,19.55
2022-10-08T05:54:01.611Z,19.85
2022-10-08T05:56:29.324Z,20.40
2022-10-08T05:58:56.643Z,20.27
2022-10-08T06:01:28.134Z,21.27
2022-10-08T06:03:58.239Z,23.92
2022-10-08T06:06:26.134Z,16.58
2022-10-08T06:08:55.963Z,15.15
2022-10-08T06:11:23.311Z,16.42
2022-10-08T06:13:56.600Z,15.23
2022-10-08T06:16:27.858Z,17.42
2022-10-08T06:18:55.464Z,21.00
2022-10-08T06:21:25.132Z,23.15
2022-10-08T06:23:54.636Z,15.15
2022-10-08T06:26:24.010Z,21.00
2022-10-08T06:28:51.897Z,19.70
2022-10-08T06:31:20.021Z,17.25
2022-10-08T06:33:47.632Z,19.85
2022-10-08T06:36:18.911Z,16.13
2022-10-08T06:38:53.062Z,14.50
2022-10-08T06:41:21.145Z,22.10
2022-10-08T06:43:48.840Z,23.25
2022-10-08T06:46:17.385Z,24.48
2022-10-08T06:48:45.105Z,20.52
2022-10-08T06:51:15.492Z,21.23
2022-10-08T06:53:44.551Z,22.40
2022-10-08T06:56:16.536Z,21.65
2022-10-08T06:58:45.011Z,17.25
2022-10-08T07:01:18.485Z,21.42
2022-10-08T07:03:58.792Z,20.70
2022-10-08T07:06:26.556Z,18.27
2022-10-08T07:08:55.695Z,19.23
2022-10-08T07:11:23.997Z,19.20
2022-10-08T07:13:51.936Z,16.35
2022-10-08T07:16:21.988Z,24.25
2022-10-08T07:18:51.222Z,17.63
2022-10-08T07:21:21.023Z,23.80
2022-10-08T07:23:48.957Z,22.35
2022-10-08T07:26:25.679Z,19.75
2022-10-08T07:28:59.052Z,17.20
2022-10-08T07:31:32.827Z,30.45
2022-10-08T07:34:02.688Z,23.70
2022-10-08T07:36:31.469Z,22.95
2022-10-08T07:39:01.903Z,21.52
2022-10-08T07:41:32.695Z,22.65
2022-10-08T07:44:02.297Z,23.07
2022-10-08T07:46:33.287Z,21.42
2022-10-08T07:49:04.991Z,18.53
2022-10-08T07:51:34.739Z,18.88
2022-10-08T07:54:08.598Z,16.35
2022-10-08T07:56:36.925Z,18.43
2022-10-08T07:59:23.533Z,25.92
2022-10-08T08:01:52.864Z,19.42
2022-10-08T08:04:20.576Z,13.00
2022-10-08T08:06:48.681Z,14.75
2022-10-08T08:09:19.604Z,15.23
2022-10-08T08:11:49.007Z,20.80
2022-10-08T08:14:17.080Z,17.90
2022-10-08T08:16:47.625Z,16.17
2022-10-08T08:19:15.355Z,16.40
2022-10-08T08:21:43.226Z,17.45
2022-10-08T08:24:15.498Z,19.40
2022-10-08T08:26:44.291Z,20.85
2022-10-08T08:29:18.116Z,16.70
2022-10-08T08:31:50.074Z,25.15
2022-10-08T08:34:23.985Z,20.83
2022-10-08T08:36:54.205Z,15.65
2022-10-08T08:39:28.524Z,18.13
2022-10-08T08:42:06.128Z,17.17
2022-10-08T08:44:43.833Z,19.42
2022-10-08T08:47:26.029Z,16.05
2022-10-08T08:49:55.522Z,21.08
2022-10-08T08:52:26.872Z,15.40
2022-10-08T08:54:55.247Z,15.88
2022-10-08T08:57:52.588Z,19.63
2022-10-08T09:00:24.061Z,16.50
2022-10-08T09:03:05.857Z,17.70
2022-10-08T09:05:39.889Z,16.77
2022-10-08T09:08:22.377Z,15.93
2022-10-08T09:11:00.050Z,15.70
2022-10-08T09:13:33.176Z,13.70
2022-10-08T09:16:01.858Z,17.38
2022-10-08T09:18:29.709Z,18.52
2022-10-08T09:20:58.311Z,16.02
2022-10-08T09:23:27.865Z,18.13
2022-10-08T09:26:23.809Z,21.40
2022-10-08T09:28:53.632Z,19.30
2022-10-08T09:31:41.228Z,18.13
2022-10-08T09:34:13.204Z,19.52
2022-10-08T09:36:54.349Z,22.92
2022-10-08T09:39:27.479Z,16.80
2022-10-08T09:42:06.795Z,16.30
2022-10-08T09:44:42.891Z,16.67
2022-10-08T09:47:15.703Z,19.60
2022-10-08T09:49:44.838Z,20.88
2022-10-08T09:52:28.587Z,17.02
2022-10-08T09:55:10.767Z,13.82
2022-10-08T09:57:49.512Z,26.10
2022-10-08T10:00:30.006Z,15.88
2022-10-08T10:02:59.911Z,15.43
2022-10-08T10:05:30.988Z,21.27
2022-10-08T10:07:58.557Z,21.15
2022-10-08T10:10:45.141Z,20.58
2022-10-08T10:13:23.662Z,13.82
2022-10-08T10:16:00.324Z,20.88
2022-10-08T10:18:49.843Z,22.02
2022-10-08T10:21:25.406Z,21.10
2022-10-08T10:24:40.240Z,20.25
2022-10-08T10:27:16.100Z,14.35
2022-10-08T10:30:20.966Z,20.05
2022-10-08T10:32:57.948Z,21.85
2022-10-08T10:35:31.943Z,29.90
2022-10-08T10:38:15.335Z,19.70
2022-10-08T10:40:51.581Z,19.98
2022-10-08T10:43:21.677Z,23.63
2022-10-08T10:45:57.278Z,21.88
2022-10-08T10:48:24.721Z,19.55
2022-10-08T10:51:10.776Z,26.70
2022-10-08T10:54:00.203Z,24.48
2022-10-08T10:56:34.135Z,22.40
2022-10-08T10:59:12.429Z,29.90
2022-10-08T11:02:16.115Z,24.55
2022-10-08T11:05:29.138Z,34.33
2022-10-08T11:08:11.598Z,30.25
2022-10-08T11:11:00.834Z,22.08
2022-10-08T11:13:49.566Z,23.35
2022-10-08T11:16:45.641Z,24.38
2022-10-08T11:19:32.782Z,27.48
2022-10-08T11:22:38.911Z,41.25
2022-10-08T11:26:09.904Z,24.10
2022-10-08T11:28:40.061Z,25.45
2022-10-08T11:31:17.517Z,36.03
2022-10-08T11:33:46.011Z,33.03
2022-10-08T11:36:50.716Z,32.90
2022-10-08T11:39:28.151Z,22.02
2022-10-08T11:42:01.300Z,29.20
2022-10-08T11:44:30.234Z,31.10
2022-10-08T11:47:35.293Z,30.17
2022-10-08T11:50:05.533Z,30.52
2022-10-08T11:52:34.235Z,33.00
2022-10-08T11:55:02.224Z,31.30
2022-10-08T11:58:02.988Z,26.38
2022-10-08T12:00:36.556Z,32.55
2022-10-08T12:03:18.628Z,33.00
2022-10-08T12:05:50.842Z,44.33
2022-10-08T12:08:53.268Z,24.40
2022-10-08T12:11:30.186Z,43.35
2022-10-08T12:14:12.732Z,30.33
2022-10-08T12:16:49.021Z,31.27
2022-10-08T12:19:35.009Z,32.10
2022-10-08T12:22:15.037Z,34.22
2022-10-08T12:24:49.684Z,28.55
2022-10-08T12:27:19.028Z,31.77
2022-10-08T12:30:14.212Z,30.63
2022-10-08T12:32:44.342Z,27.58
2022-10-08T12:35:22.193Z,25.30
2022-10-08T12:38:13.609Z,26.52
2022-10-08T12:40:48.222Z,33.50
2022-10-08T12:43:15.485Z,25.77
2022-10-08T12:45:55.930Z,24.00
2022-10-08T12:48:33.879Z,31.45
2022-10-08T12:51:19.513Z,22.02
2022-10-08T12:53:48.085Z,27.17
2022-10-08T12:56:24.499Z,23.98
2022-10-08T12:58:53.968Z,22.30
2022-10-08T13:01:22.103Z,21.70
2022-10-08T13:04:20.813Z,23.45
2022-10-08T13:06:50.379Z,19.42
2022-10-08T13:09:35.271Z,23.48
2022-10-08T13:12:05.830Z,27.88
2022-10-08T13:14:36.113Z,26.58
2022-10-08T13:17:04.763Z,28.08
2022-10-08T13:19:37.942Z,32.35
2022-10-08T13:22:25.875Z,26.42
2022-10-08T13:24:53.377Z,30.27
2022-10-08T13:27:26.719Z,33.70
2022-10-08T13:29:55.374Z,25.83
2022-10-08T13:32:26.456Z,22.30
2022-10-08T13:34:57.198Z,21.52
2022-10-08T13:37:26.719Z,18.88
2022-10-08T13:39:55.521Z,13.25
2022-10-08T13:42:27.650Z,17.30
2022-10-08T13:44:55.207Z,15.82
2022-10-08T13:47:22.966Z,19.02
2022-10-08T13:49:50.605Z,18.40
2022-10-08T13:52:23.947Z,17.88
2022-10-08T13:54:56.798Z,27.60
2022-10-08T13:57:25.340Z,21.65
2022-10-08T13:59:52.655Z,15.18
2022-10-08T14:02:20.204Z,13.63
2022-10-08T14:04:47.694Z,23.20
2022-10-08T14:07:25.872Z,12.10
2022-10-08T14:09:55.848Z,22.65
2022-10-08T14:12:26.625Z,13.38
2022-10-08T14:14:54.313Z,13.27
2022-10-08T14:17:22.266Z,18.48
2022-10-08T14:19:50.542Z,18.63
2022-10-08T14:22:18.946Z,17.70
2022-10-08T14:24:46.343Z,22.98
2022-10-08T14:27:16.080Z,22.75
2022-10-08T14:29:43.449Z,24.77
2022-10-08T14:32:11.830Z,22.13
2022-10-08T14:34:39.358Z,16.48
2022-10-08T14:37:06.839Z,20.88
2022-10-08T14:39:34.127Z,18.20
2022-10-08T14:42:01.373Z,18.73
2022-10-08T14:44:28.675Z,15.77
2022-10-08T14:46:55.996Z,18.77
2022-10-08T14:49:24.156Z,18.83
2022-10-08T14:51:51.475Z,15.77
2022-10-08T14:54:19.099Z,19.42
2022-10-08T14:56:48.235Z,17.48
2022-10-08T14:59:15.594Z,21.17
2022-10-08T15:01:42.951Z,23.02
2022-10-08T15:04:13.539Z,27.90
2022-10-08T15:06:41.703Z,25.67
2022-10-08T15:09:11.327Z,26.42
2022-10-08T15:11:38.798Z,26.50
2022-10-08T15:14:06.583Z,20.63
2022-10-08T15:16:34.623Z,22.80
2022-10-08T15:19:02.530Z,27.60
2022-10-08T15:21:31.988Z,24.60
2022-10-08T15:23:59.298Z,30.08
2022-10-08T15:26:27.299Z,22.92
2022-10-08T15:28:54.887Z,26.42
2022-10-08T15:31:25.133Z,22.92
2022-10-08T15:33:54.725Z,23.48
2022-10-08T15:36:30.656Z,26.20
2022-10-08T15:39:03.748Z,27.65
2022-10-08T15:41:36.592Z,23.38
2022-10-08T15:44:12.756Z,21.67
2022-10-08T15:46:40.058Z,28.02
2022-10-08T15:49:07.550Z,24.30
2022-10-08T15:51:34.923Z,32.92
2022-10-08T15:54:02.847Z,24.05
2022-10-08T15:56:30.376Z,38.40
2022-10-08T15:58:59.308Z,23.33
2022-10-08T16:01:27.569Z,23.52
2022-10-08T16:03:56.363Z,19.17
2022-10-08T16:06:26.620Z,23.35
2022-10-08T16:08:57.708Z,20.40
2022-10-08T16:11:28.857Z,21.20
2022-10-08T16:14:14.141Z,26.00
2022-10-08T16:16:42.792Z,21.45
2022-10-08T16:19:18.694Z,23.80
2022-10-08T16:21:47.381Z,20.98
2022-10-08T16:24:15.543Z,21.23
2022-10-08T16:26:43.582Z,21.83
2022-10-08T16:29:13.293Z,25.00
2022-10-08T16:31:41.981Z,27.98
2022-10-08T16:34:16.656Z,20.40
2022-10-08T16:36:44.355Z,20.05
2022-10-08T16:39:14.051Z,25.95
2022-10-08T16:41:41.797Z,25.42
2022-10-08T16:44:13.199Z,22.23
2022-10-08T16:46:48.199Z,17.83
2022-10-08T16:49:26.873Z,24.35
2022-10-08T16:52:00.186Z,23.58
2022-10-08T16:54:28.265Z,24.88
2022-10-08T16:56:56.669Z,32.88
2022-10-08T16:59:26.727Z,31.63
2022-10-08T17:01:56.245Z,31.42
2022-10-08T17:04:24.991Z,26.90
2022-10-08T17:06:52.569Z,34.90
2022-10-08T17:09:20.706Z,26.63
2022-10-08T17:11:48.175Z,40.58
2022-10-08T17:14:16.051Z,31.70
2022-10-08T17:16:44.970Z,32.53
2022-10-08T17:19:12.556Z,29.60
2022-10-08T17:21:40.427Z,30.77
2022-10-08T17:24:07.784Z,34.72
2022-10-08T17:26:35.381Z,35.63
2022-10-08T17:29:08.327Z,31.30
2022-10-08T17:31:36.994Z,33.70
2022-10-08T17:34:05.614Z,34.10
2022-10-08T17:36:36.055Z,32.70
2022-10-08T17:39:07.693Z,28.02
2022-10-08T17:41:39.812Z,31.42
2022-10-08T17:44:09.749Z,32.90
2022-10-08T17:46:43.702Z,40.58
2022-10-08T17:49:13.941Z,39.90
2022-10-08T17:51:44.710Z,40.63
2022-10-08T17:54:14.622Z,30.35
2022-10-08T17:56:42.478Z,32.60
2022-10-08T17:59:19.803Z,34.92
2022-10-08T18:01:47.292Z,25.38
2022-10-08T18:04:17.433Z,32.00
2022-10-08T18:06:46.868Z,27.65
2022-10-08T18:09:17.007Z,30.60
2022-10-08T18:11:47.761Z,34.47
2022-10-08T18:14:17.083Z,28.45
2022-10-08T18:16:48.111Z,29.77
2022-10-08T18:19:19.484Z,35.70
2022-10-08T18:21:46.859Z,29.55
2022-10-08T18:24:14.841Z,34.42
2022-10-08T18:26:42.828Z,32.70
2022-10-08T18:29:13.211Z,29.60
2022-10-08T18:31:42.836Z,34.30
2022-10-08T18:34:15.047Z,30.27
2022-10-08T18:36:43.968Z,38.47
2022-10-08T18:39:14.480Z,30.58
2022-10-08T18:41:45.028Z,29.85
2022-10-08T18:44:15.228Z,27.98
2022-10-08T18:46:46.836Z,28.30
2022-10-08T18:51:43.531Z,29.80
2022-10-08T18:54:30.618Z,32.17
2022-10-08T18:57:00.234Z,26.80
2022-10-08T18:59:27.690Z,24.45
2022-10-08T19:01:59.082Z,31.73
2022-10-08T19:04:27.403Z,29.30
2022-10-08T19:06:54.840Z,34.03
2022-10-08T19:09:22.527Z,29.83
2022-10-08T19:11:52.378Z,29.77
2022-10-08T19:14:21.782Z,29.98
2022-10-08T19:16:49.978Z,26.17
2022-10-08T19:19:23.027Z,30.42
2022-10-08T19:21:52.009Z,33.60
2022-10-08T19:24:22.032Z,124.70
2022-10-08T19:26:50.863Z,52.50
2022-10-08T19:29:21.035Z,38.42
2022-10-08T19:31:50.089Z,38.25
2022-10-08T19:34:23.764Z,34.55
2022-10-08T19:36:51.756Z,36.00
2022-10-08T19:39:28.392Z,38.08
2022-10-08T19:41:55.723Z,40.28
2022-10-08T19:44:24.918Z,39.95
2022-10-08T19:46:52.430Z,34.30
2022-10-08T19:49:19.930Z,37.40
2022-10-08T19:51:50.311Z,38.92
2022-10-08T19:54:18.288Z,34.38
2022-10-08T19:56:45.770Z,37.53
2022-10-08T19:59:13.564Z,35.88
2022-10-08T20:01:41.912Z,31.05
2022-10-08T20:04:10.183Z,33.47
2022-10-08T20:06:40.466Z,35.15
2022-10-08T20:09:12.859Z,30.88
2022-10-08T20:11:41.706Z,28.83
2022-10-08T20:14:09.684Z,32.70
2022-10-08T20:16:39.969Z,35.17
2022-10-08T20:19:14.122Z,33.38
2022-10-08T20:21:42.171Z,76.78
2022-10-08T20:24:10.093Z,78.22
2022-10-08T20:26:41.978Z,56.60
2022-10-08T20:29:20.791Z,33.83
2022-10-08T20:31:50.714Z,34.08
2022-10-08T20:34:20.729Z,36.28
2022-10-08T20:36:49.327Z,35.20
2022-10-08T20:39:18.222Z,40.63
2022-10-08T20:41:45.570Z,31.30
2022-10-08T20:44:13.009Z,32.55
2022-10-08T20:46:41.120Z,30.52
2022-10-08T20:49:11.800Z,31.38
2022-10-08T20:51:41.010Z,36.15
2022-10-08T20:54:10.891Z,37.88
2022-10-08T20:56:40.380Z,33.35
2022-10-08T20:59:10.030Z,31.17
2022-10-08T21:01:38.669Z,34.22
2022-10-08T21:04:07.012Z,37.95
2022-10-08T21:06:43.492Z,33.50
2022-10-08T21:09:11.794Z,34.28
2022-10-08T21:11:39.170Z,140.05
2022-10-08T21:14:07.843Z,49.47
2022-10-08T21:16:38.729Z,39.00
2022-10-08T21:19:09.882Z,42.58
2022-10-08T21:21:37.418Z,32.13
2022-10-08T21:24:05.014Z,37.63
2022-10-08T21:26:35.844Z,28.27
2022-10-08T21:29:06.083Z,32.80
2022-10-08T21:31:35.740Z,34.05
2022-10-08T21:34:04.190Z,30.83
2022-10-08T21:36:34.600Z,33.38
2022-10-08T21:39:03.676Z,37.10
2022-10-08T21:41:34.667Z,35.25
2022-10-08T21:44:04.885Z,40.33
2022-10-08T21:46:34.798Z,32.72
2022-10-08T21:49:16.596Z,28.20
2022-10-08T21:51:44.782Z,35.13
2022-10-08T21:54:12.928Z,32.58
2022-10-08T21:56:42.297Z,30.48
2022-10-08T21:59:12.431Z,34.45
2022-10-08T22:01:45.660Z,36.88
2022-10-08T22:04:18.778Z,36.95
2022-10-08T22:06:48.538Z,37.90
2022-10-08T22:09:21.816Z,32.45
2022-10-08T22:11:50.347Z,31.27
2022-10-08T22:14:18.895Z,38.28
2022-10-08T22:16:46.596Z,28.08
2022-10-08T22:19:14.801Z,37.40
2022-10-08T22:21:42.385Z,32.85
2022-10-08T22:24:10.169Z,31.88
2022-10-08T22:26:41.024Z,35.03
2022-10-08T22:29:08.587Z,36.05
2022-10-08T22:31:36.130Z,37.05
2022-10-08T22:34:03.836Z,35.33
2022-10-08T22:36:33.478Z,34.63
2022-10-08T22:39:00.857Z,32.67
2022-10-08T22:41:31.236Z,37.90
2022-10-08T22:43:59.289Z,32.42
2022-10-08T22:46:33.978Z,34.63
2022-10-08T22:49:07.219Z,35.40
2022-10-08T22:51:35.051Z,32.33
2022-10-08T22:54:02.369Z,34.47
2022-10-08T22:56:33.349Z,31.10
2022-10-08T22:59:01.121Z,32.27
2022-10-08T23:01:30.336Z,36.85
2022-10-08T23:03:58.339Z,41.15
2022-10-08T23:06:31.935Z,32.88
2022-10-08T23:09:02.246Z,39.63
2022-10-08T23:11:30.134Z,35.80
2022-10-08T23:13:58.707Z,35.78
2022-10-08T23:16:27.932Z,34.08
2022-10-08T23:19:00.923Z,32.78
2022-10-08T23:21:28.598Z,31.58
2022-10-08T23:23:56.854Z,35.67
2022-10-08T23:26:27.374Z,41.40
2022-10-08T23:28:58.063Z,40.33
2022-10-08T23:31:30.958Z,39.85
2022-10-08T23:33:58.839Z,32.55
2022-10-08T23:36:31.293Z,41.03
2022-10-08T23:39:08.215Z,35.95
2022-10-08T23:41:36.125Z,31.52
2022-10-08T23:44:04.028Z,39.53
2022-10-08T23:46:31.770Z,34.60
2022-10-08T23:48:59.617Z,37.92
2022-10-08T23:51:29.137Z,36.70
2022-10-08T23:53:56.688Z,35.95
2022-10-08T23:56:26.119Z,32.97
2022-10-08T23:59:01.249Z,30.20
